sensor_id;sensor_type;location;lat;lon;timestamp;temperature;humidity
33105;DHT22;19476;51.448;6.674;2023-04-09T00:02:11;15.10;51.00
33105;DHT22;19476;51.448;6.674;2023-04-09T00:04:37;15.20;51.00
33105;DHT22;19476;51.448;6.674;2023-04-09T00:07:03;15.20;51.00
33105;DHT22;19476;51.448;6.674;2023-04-09T00:09:28;15.20;51.00
33105;DHT22;19476;51.448;6.674;2023-04-09T00:11:54;15.20;51.00
33105;DHT22;19476;51.448;6.674;2023-04-09T00:14:21;15.20;50.90
33105;DHT22;19476;51.448;6.674;2023-04-09T00:16:47;15.20;50.90
33105;DHT22;19476;51.448;6.674;2023-04-09T00:19:12;15.20;50.90
33105;DHT22;19476;51.448;6.674;2023-04-09T00:21:38;15.20;50.90
33105;DHT22;19476;51.448;6.674;2023-04-09T00:24:04;15.10;50.80
33105;DHT22;19476;51.448;6.674;2023-04-09T00:26:31;15.20;50.90
33105;DHT22;19476;51.448;6.674;2023-04-09T00:28:56;15.20;50.90
33105;DHT22;19476;51.448;6.674;2023-04-09T00:31:22;15.10;50.80
33105;DHT22;19476;51.448;6.674;2023-04-09T00:33:48;15.20;50.90
33105;DHT22;19476;51.448;6.674;2023-04-09T00:36:14;15.20;50.90
33105;DHT22;19476;51.448;6.674;2023-04-09T00:38:39;15.10;50.80
33105;DHT22;19476;51.448;6.674;2023-04-09T00:41:05;15.20;50.90
33105;DHT22;19476;51.448;6.674;2023-04-09T00:43:31;15.20;50.90
33105;DHT22;19476;51.448;6.674;2023-04-09T00:45:57;15.10;50.90
33105;DHT22;19476;51.448;6.674;2023-04-09T00:48:24;15.20;51.00
33105;DHT22;19476;51.448;6.674;2023-04-09T00:50:50;15.20;51.00
33105;DHT22;19476;51.448;6.674;2023-04-09T00:53:16;15.20;50.90
33105;DHT22;19476;51.448;6.674;2023-04-09T00:55:42;15.30;51.00
33105;DHT22;19476;51.448;6.674;2023-04-09T00:58:09;15.10;50.90
33105;DHT22;19476;51.448;6.674;2023-04-09T01:00:35;15.30;50.90
33105;DHT22;19476;51.448;6.674;2023-04-09T01:03:01;15.30;50.80
33105;DHT22;19476;51.448;6.674;2023-04-09T01:05:48;15.30;50.80
33105;DHT22;19476;51.448;6.674;2023-04-09T01:11:03;15.30;50.70
33105;DHT22;19476;51.448;6.674;2023-04-09T01:13:53;15.30;50.60
33105;DHT22;19476;51.448;6.674;2023-04-09T01:16:21;15.30;50.60
33105;DHT22;19476;51.448;6.674;2023-04-09T01:18:57;15.20;50.50
33105;DHT22;19476;51.448;6.674;2023-04-09T01:21:27;15.20;50.40
33105;DHT22;19476;51.448;6.674;2023-04-09T01:24:30;15.20;50.40
33105;DHT22;19476;51.448;6.674;2023-04-09T01:29:55;15.20;50.50
33105;DHT22;19476;51.448;6.674;2023-04-09T01:32:20;15.10;50.50
33105;DHT22;19476;51.448;6.674;2023-04-09T01:34:47;15.10;50.40
33105;DHT22;19476;51.448;6.674;2023-04-09T01:37:14;15.10;50.50
33105;DHT22;19476;51.448;6.674;2023-04-09T01:39:41;15.10;50.50
33105;DHT22;19476;51.448;6.674;2023-04-09T01:42:08;15.00;50.40
33105;DHT22;19476;51.448;6.674;2023-04-09T01:44:38;15.00;50.50
33105;DHT22;19476;51.448;6.674;2023-04-09T01:47:06;15.00;50.50
33105;DHT22;19476;51.448;6.674;2023-04-09T01:49:34;15.00;50.60
33105;DHT22;19476;51.448;6.674;2023-04-09T01:52:00;14.90;50.50
33105;DHT22;19476;51.448;6.674;2023-04-09T01:54:26;15.00;50.60
33105;DHT22;19476;51.448;6.674;2023-04-09T01:56:51;14.90;50.60
33105;DHT22;19476;51.448;6.674;2023-04-09T01:59:18;14.90;50.60
33105;DHT22;19476;51.448;6.674;2023-04-09T02:01:48;14.90;50.70
33105;DHT22;19476;51.448;6.674;2023-04-09T02:04:23;14.80;50.70
33105;DHT22;19476;51.448;6.674;2023-04-09T02:09:20;14.80;50.80
33105;DHT22;19476;51.448;6.674;2023-04-09T02:11:49;14.80;50.80
33105;DHT22;19476;51.448;6.674;2023-04-09T02:14:16;14.80;50.80
33105;DHT22;19476;51.448;6.674;2023-04-09T02:16:43;14.80;50.90
33105;DHT22;19476;51.448;6.674;2023-04-09T02:19:08;14.70;50.80
33105;DHT22;19476;51.448;6.674;2023-04-09T02:21:34;14.70;50.80
33105;DHT22;19476;51.448;6.674;2023-04-09T02:24:00;14.70;50.90
33105;DHT22;19476;51.448;6.674;2023-04-09T02:26:26;14.70;50.80
33105;DHT22;19476;51.448;6.674;2023-04-09T02:28:52;14.70;50.70
33105;DHT22;19476;51.448;6.674;2023-04-09T02:31:17;14.70;50.70
33105;DHT22;19476;51.448;6.674;2023-04-09T02:33:44;14.60;50.70
33105;DHT22;19476;51.448;6.674;2023-04-09T02:36:12;14.60;51.30
33105;DHT22;19476;51.448;6.674;2023-04-09T02:38:41;14.50;50.90
33105;DHT22;19476;51.448;6.674;2023-04-09T02:41:07;14.50;50.90
33105;DHT22;19476;51.448;6.674;2023-04-09T02:43:33;14.40;50.90
33105;DHT22;19476;51.448;6.674;2023-04-09T02:45:59;14.30;51.00
33105;DHT22;19476;51.448;6.674;2023-04-09T02:48:25;14.30;51.10
33105;DHT22;19476;51.448;6.674;2023-04-09T02:50:51;14.20;51.20
33105;DHT22;19476;51.448;6.674;2023-04-09T02:53:16;14.20;51.20
33105;DHT22;19476;51.448;6.674;2023-04-09T02:55:42;14.10;51.30
33105;DHT22;19476;51.448;6.674;2023-04-09T02:58:08;14.00;51.30
33105;DHT22;19476;51.448;6.674;2023-04-09T03:00:34;14.00;51.50
33105;DHT22;19476;51.448;6.674;2023-04-09T03:03:00;13.90;51.50
33105;DHT22;19476;51.448;6.674;2023-04-09T03:05:25;13.90;51.60
33105;DHT22;19476;51.448;6.674;2023-04-09T03:07:52;13.90;51.70
33105;DHT22;19476;51.448;6.674;2023-04-09T03:10:18;13.90;51.90
33105;DHT22;19476;51.448;6.674;2023-04-09T03:12:44;13.80;51.80
33105;DHT22;19476;51.448;6.674;2023-04-09T03:15:10;13.80;51.90
33105;DHT22;19476;51.448;6.674;2023-04-09T03:17:36;13.70;51.90
33105;DHT22;19476;51.448;6.674;2023-04-09T03:20:02;13.70;51.90
33105;DHT22;19476;51.448;6.674;2023-04-09T03:22:27;13.70;52.00
33105;DHT22;19476;51.448;6.674;2023-04-09T03:24:53;13.60;52.00
33105;DHT22;19476;51.448;6.674;2023-04-09T03:27:19;13.60;52.00
33105;DHT22;19476;51.448;6.674;2023-04-09T03:29:45;13.60;52.10
33105;DHT22;19476;51.448;6.674;2023-04-09T03:32:10;13.60;52.20
33105;DHT22;19476;51.448;6.674;2023-04-09T03:34:36;13.50;52.20
33105;DHT22;19476;51.448;6.674;2023-04-09T03:37:02;13.50;52.30
33105;DHT22;19476;51.448;6.674;2023-04-09T03:39:28;13.50;52.30
33105;DHT22;19476;51.448;6.674;2023-04-09T03:41:56;13.40;52.40
33105;DHT22;19476;51.448;6.674;2023-04-09T03:44:23;13.40;52.50
33105;DHT22;19476;51.448;6.674;2023-04-09T03:46:48;13.40;52.60
33105;DHT22;19476;51.448;6.674;2023-04-09T03:49:14;13.40;52.60
33105;DHT22;19476;51.448;6.674;2023-04-09T03:51:40;13.40;52.60
33105;DHT22;19476;51.448;6.674;2023-04-09T03:54:06;13.40;52.60
33105;DHT22;19476;51.448;6.674;2023-04-09T03:56:32;13.40;52.60
33105;DHT22;19476;51.448;6.674;2023-04-09T03:58:57;13.40;52.60
33105;DHT22;19476;51.448;6.674;2023-04-09T04:01:23;13.20;52.50
33105;DHT22;19476;51.448;6.674;2023-04-09T04:03:49;13.40;52.60
33105;DHT22;19476;51.448;6.674;2023-04-09T04:06:15;13.40;52.60
33105;DHT22;19476;51.448;6.674;2023-04-09T04:08:40;13.40;52.60
33105;DHT22;19476;51.448;6.674;2023-04-09T04:11:06;13.40;52.60
33105;DHT22;19476;51.448;6.674;2023-04-09T04:13:32;13.50;52.60
33105;DHT22;19476;51.448;6.674;2023-04-09T04:15:58;13.50;52.50
33105;DHT22;19476;51.448;6.674;2023-04-09T04:18:23;13.50;52.40
33105;DHT22;19476;51.448;6.674;2023-04-09T04:20:49;13.40;52.20
33105;DHT22;19476;51.448;6.674;2023-04-09T04:23:15;13.50;52.30
33105;DHT22;19476;51.448;6.674;2023-04-09T04:25:41;13.50;52.20
33105;DHT22;19476;51.448;6.674;2023-04-09T04:28:07;13.40;52.70
33105;DHT22;19476;51.448;6.674;2023-04-09T04:30:33;13.50;52.10
33105;DHT22;19476;51.448;6.674;2023-04-09T04:33:00;13.40;52.10
33105;DHT22;19476;51.448;6.674;2023-04-09T04:35:26;13.50;52.20
33105;DHT22;19476;51.448;6.674;2023-04-09T04:37:51;13.40;52.10
33105;DHT22;19476;51.448;6.674;2023-04-09T04:40:17;13.40;52.10
33105;DHT22;19476;51.448;6.674;2023-04-09T04:42:43;13.40;52.10
33105;DHT22;19476;51.448;6.674;2023-04-09T04:45:09;13.40;52.10
33105;DHT22;19476;51.448;6.674;2023-04-09T04:47:35;13.40;52.10
33105;DHT22;19476;51.448;6.674;2023-04-09T04:50:01;13.40;52.00
33105;DHT22;19476;51.448;6.674;2023-04-09T04:52:26;13.50;52.60
33105;DHT22;19476;51.448;6.674;2023-04-09T04:54:52;13.50;52.00
33105;DHT22;19476;51.448;6.674;2023-04-09T04:57:18;13.50;51.90
33105;DHT22;19476;51.448;6.674;2023-04-09T04:59:44;13.50;51.80
33105;DHT22;19476;51.448;6.674;2023-04-09T05:02:09;13.50;51.80
33105;DHT22;19476;51.448;6.674;2023-04-09T05:04:35;13.60;51.80
33105;DHT22;19476;51.448;6.674;2023-04-09T05:07:01;13.60;51.70
33105;DHT22;19476;51.448;6.674;2023-04-09T05:09:27;13.50;51.60
33105;DHT22;19476;51.448;6.674;2023-04-09T05:11:53;13.50;51.60
33105;DHT22;19476;51.448;6.674;2023-04-09T05:14:18;13.60;51.70
33105;DHT22;19476;51.448;6.674;2023-04-09T05:16:46;13.60;51.70
33105;DHT22;19476;51.448;6.674;2023-04-09T05:19:12;13.50;51.70
33105;DHT22;19476;51.448;6.674;2023-04-09T05:21:37;13.50;51.70
33105;DHT22;19476;51.448;6.674;2023-04-09T05:24:03;13.60;51.70
33105;DHT22;19476;51.448;6.674;2023-04-09T05:26:29;13.60;51.70
33105;DHT22;19476;51.448;6.674;2023-04-09T05:28:55;13.60;51.70
33105;DHT22;19476;51.448;6.674;2023-04-09T05:31:21;13.60;51.60
33105;DHT22;19476;51.448;6.674;2023-04-09T05:33:46;13.60;51.50
33105;DHT22;19476;51.448;6.674;2023-04-09T05:36:16;13.60;51.50
33105;DHT22;19476;51.448;6.674;2023-04-09T05:38:43;13.60;51.60
33105;DHT22;19476;51.448;6.674;2023-04-09T05:41:10;13.60;51.60
33105;DHT22;19476;51.448;6.674;2023-04-09T05:43:36;13.60;51.60
33105;DHT22;19476;51.448;6.674;2023-04-09T05:46:02;13.60;52.10
33105;DHT22;19476;51.448;6.674;2023-04-09T05:48:28;13.60;51.60
33105;DHT22;19476;51.448;6.674;2023-04-09T05:50:53;13.60;51.70
33105;DHT22;19476;51.448;6.674;2023-04-09T05:53:20;13.60;51.70
33105;DHT22;19476;51.448;6.674;2023-04-09T05:55:46;13.60;51.90
33105;DHT22;19476;51.448;6.674;2023-04-09T05:58:14;13.60;51.80
33105;DHT22;19476;51.448;6.674;2023-04-09T06:00:41;13.60;51.90
33105;DHT22;19476;51.448;6.674;2023-04-09T06:03:08;13.60;52.00
33105;DHT22;19476;51.448;6.674;2023-04-09T06:05:34;13.60;52.10
33105;DHT22;19476;51.448;6.674;2023-04-09T06:07:59;13.60;52.10
33105;DHT22;19476;51.448;6.674;2023-04-09T06:10:26;13.70;52.20
33105;DHT22;19476;51.448;6.674;2023-04-09T06:12:52;13.70;52.20
33105;DHT22;19476;51.448;6.674;2023-04-09T06:15:18;13.80;52.20
33105;DHT22;19476;51.448;6.674;2023-04-09T06:17:43;13.90;52.10
33105;DHT22;19476;51.448;6.674;2023-04-09T06:20:10;13.90;52.00
33105;DHT22;19476;51.448;6.674;2023-04-09T06:22:36;13.90;51.90
33105;DHT22;19476;51.448;6.674;2023-04-09T06:25:02;14.00;51.70
33105;DHT22;19476;51.448;6.674;2023-04-09T06:27:27;14.10;51.60
33105;DHT22;19476;51.448;6.674;2023-04-09T06:29:53;14.10;51.50
33105;DHT22;19476;51.448;6.674;2023-04-09T06:32:19;14.20;51.40
33105;DHT22;19476;51.448;6.674;2023-04-09T06:34:45;14.20;51.20
33105;DHT22;19476;51.448;6.674;2023-04-09T06:37:11;14.20;51.20
33105;DHT22;19476;51.448;6.674;2023-04-09T06:39:37;14.30;51.20
33105;DHT22;19476;51.448;6.674;2023-04-09T06:42:03;14.30;51.10
33105;DHT22;19476;51.448;6.674;2023-04-09T06:44:29;14.40;51.10
33105;DHT22;19476;51.448;6.674;2023-04-09T06:46:56;14.40;51.10
33105;DHT22;19476;51.448;6.674;2023-04-09T06:49:21;14.40;51.00
33105;DHT22;19476;51.448;6.674;2023-04-09T06:51:47;14.50;50.90
33105;DHT22;19476;51.448;6.674;2023-04-09T06:54:13;14.50;50.80
33105;DHT22;19476;51.448;6.674;2023-04-09T06:56:39;14.60;50.70
33105;DHT22;19476;51.448;6.674;2023-04-09T06:59:04;14.60;50.60
33105;DHT22;19476;51.448;6.674;2023-04-09T07:01:30;14.70;50.50
33105;DHT22;19476;51.448;6.674;2023-04-09T07:03:56;14.70;50.30
33105;DHT22;19476;51.448;6.674;2023-04-09T07:06:22;14.70;50.20
33105;DHT22;19476;51.448;6.674;2023-04-09T07:08:47;14.70;50.10
33105;DHT22;19476;51.448;6.674;2023-04-09T07:11:13;14.70;50.00
33105;DHT22;19476;51.448;6.674;2023-04-09T07:13:41;14.80;49.90
33105;DHT22;19476;51.448;6.674;2023-04-09T07:16:08;14.80;49.70
33105;DHT22;19476;51.448;6.674;2023-04-09T07:18:33;14.80;49.70
33105;DHT22;19476;51.448;6.674;2023-04-09T07:20:59;14.80;49.40
33105;DHT22;19476;51.448;6.674;2023-04-09T07:23:25;14.80;49.30
33105;DHT22;19476;51.448;6.674;2023-04-09T07:25:51;14.90;49.20
33105;DHT22;19476;51.448;6.674;2023-04-09T07:28:17;14.90;49.10
33105;DHT22;19476;51.448;6.674;2023-04-09T07:30:43;14.90;49.20
33105;DHT22;19476;51.448;6.674;2023-04-09T07:33:10;15.00;49.20
33105;DHT22;19476;51.448;6.674;2023-04-09T07:35:36;15.00;49.20
33105;DHT22;19476;51.448;6.674;2023-04-09T07:38:02;15.00;49.00
33105;DHT22;19476;51.448;6.674;2023-04-09T07:40:28;15.10;49.00
33105;DHT22;19476;51.448;6.674;2023-04-09T07:42:53;15.10;49.00
33105;DHT22;19476;51.448;6.674;2023-04-09T07:45:20;15.20;49.00
33105;DHT22;19476;51.448;6.674;2023-04-09T07:47:46;15.20;48.90
33105;DHT22;19476;51.448;6.674;2023-04-09T07:50:12;15.30;49.00
33105;DHT22;19476;51.448;6.674;2023-04-09T07:52:38;15.30;48.90
33105;DHT22;19476;51.448;6.674;2023-04-09T07:55:04;15.40;49.40
33105;DHT22;19476;51.448;6.674;2023-04-09T07:57:32;15.50;48.60
33105;DHT22;19476;51.448;6.674;2023-04-09T07:59:58;15.50;48.30
33105;DHT22;19476;51.448;6.674;2023-04-09T08:02:24;15.60;48.40
33105;DHT22;19476;51.448;6.674;2023-04-09T08:04:51;15.70;48.40
33105;DHT22;19476;51.448;6.674;2023-04-09T08:07:16;15.70;48.20
33105;DHT22;19476;51.448;6.674;2023-04-09T08:09:42;15.80;47.70
33105;DHT22;19476;51.448;6.674;2023-04-09T08:12:08;15.80;47.50
33105;DHT22;19476;51.448;6.674;2023-04-09T08:14:34;15.90;47.30
33105;DHT22;19476;51.448;6.674;2023-04-09T08:16:59;15.90;47.20
33105;DHT22;19476;51.448;6.674;2023-04-09T08:19:26;16.00;47.20
33105;DHT22;19476;51.448;6.674;2023-04-09T08:21:52;16.00;46.60
33105;DHT22;19476;51.448;6.674;2023-04-09T08:24:17;16.00;46.50
33105;DHT22;19476;51.448;6.674;2023-04-09T08:26:43;16.10;46.30
33105;DHT22;19476;51.448;6.674;2023-04-09T08:29:11;16.10;46.10
33105;DHT22;19476;51.448;6.674;2023-04-09T08:31:37;16.20;45.90
33105;DHT22;19476;51.448;6.674;2023-04-09T08:34:04;16.30;45.90
33105;DHT22;19476;51.448;6.674;2023-04-09T08:36:30;16.30;45.60
33105;DHT22;19476;51.448;6.674;2023-04-09T08:38:57;16.40;45.50
33105;DHT22;19476;51.448;6.674;2023-04-09T08:41:25;16.40;45.50
33105;DHT22;19476;51.448;6.674;2023-04-09T08:43:54;16.50;45.50
33105;DHT22;19476;51.448;6.674;2023-04-09T08:46:22;16.60;45.20
33105;DHT22;19476;51.448;6.674;2023-04-09T08:48:49;16.60;44.60
33105;DHT22;19476;51.448;6.674;2023-04-09T08:51:23;16.70;44.50
33105;DHT22;19476;51.448;6.674;2023-04-09T08:54:00;16.70;44.20
33105;DHT22;19476;51.448;6.674;2023-04-09T08:56:27;16.80;43.60
33105;DHT22;19476;51.448;6.674;2023-04-09T08:58:54;16.90;44.10
33105;DHT22;19476;51.448;6.674;2023-04-09T09:01:21;16.90;43.80
33105;DHT22;19476;51.448;6.674;2023-04-09T09:06:25;17.10;42.10
33105;DHT22;19476;51.448;6.674;2023-04-09T09:11:40;17.20;41.70
33105;DHT22;19476;51.448;6.674;2023-04-09T09:14:14;17.30;42.40
33105;DHT22;19476;51.448;6.674;2023-04-09T09:19:29;17.40;40.70
33105;DHT22;19476;51.448;6.674;2023-04-09T09:21:56;17.40;40.70
33105;DHT22;19476;51.448;6.674;2023-04-09T09:24:22;17.40;40.30
33105;DHT22;19476;51.448;6.674;2023-04-09T09:26:48;17.50;40.80
33105;DHT22;19476;51.448;6.674;2023-04-09T09:29:14;17.50;41.30
33105;DHT22;19476;51.448;6.674;2023-04-09T09:31:48;17.60;41.40
33105;DHT22;19476;51.448;6.674;2023-04-09T09:34:15;17.60;40.90
33105;DHT22;19476;51.448;6.674;2023-04-09T09:36:42;17.70;40.90
33105;DHT22;19476;51.448;6.674;2023-04-09T09:39:08;17.80;41.00
33105;DHT22;19476;51.448;6.674;2023-04-09T09:41:35;17.80;40.60
33105;DHT22;19476;51.448;6.674;2023-04-09T09:44:01;17.90;40.10
33105;DHT22;19476;51.448;6.674;2023-04-09T09:46:31;18.00;39.50
33105;DHT22;19476;51.448;6.674;2023-04-09T09:48:58;18.00;39.30
33105;DHT22;19476;51.448;6.674;2023-04-09T09:51:25;18.00;39.00
33105;DHT22;19476;51.448;6.674;2023-04-09T09:53:58;18.10;39.20
33105;DHT22;19476;51.448;6.674;2023-04-09T09:56:30;18.10;37.80
33105;DHT22;19476;51.448;6.674;2023-04-09T09:59:20;18.10;37.90
33105;DHT22;19476;51.448;6.674;2023-04-09T10:01:51;18.20;38.60
33105;DHT22;19476;51.448;6.674;2023-04-09T10:04:19;18.20;37.90
33105;DHT22;19476;51.448;6.674;2023-04-09T10:06:47;18.30;37.90
33105;DHT22;19476;51.448;6.674;2023-04-09T10:09:14;18.30;38.00
33105;DHT22;19476;51.448;6.674;2023-04-09T10:11:40;18.40;37.90
33105;DHT22;19476;51.448;6.674;2023-04-09T10:14:12;18.40;37.80
33105;DHT22;19476;51.448;6.674;2023-04-09T10:16:38;18.40;37.90
33105;DHT22;19476;51.448;6.674;2023-04-09T10:19:05;18.60;37.80
33105;DHT22;19476;51.448;6.674;2023-04-09T10:21:52;18.60;37.60
33105;DHT22;19476;51.448;6.674;2023-04-09T10:24:21;18.70;36.70
33105;DHT22;19476;51.448;6.674;2023-04-09T10:26:47;18.70;37.60
33105;DHT22;19476;51.448;6.674;2023-04-09T10:29:14;18.80;37.50
33105;DHT22;19476;51.448;6.674;2023-04-09T10:32:04;18.80;36.70
33105;DHT22;19476;51.448;6.674;2023-04-09T10:34:37;18.90;36.40
33105;DHT22;19476;51.448;6.674;2023-04-09T10:37:09;19.00;36.60
33105;DHT22;19476;51.448;6.674;2023-04-09T10:39:45;19.00;35.90
33105;DHT22;19476;51.448;6.674;2023-04-09T10:42:34;19.00;35.70
33105;DHT22;19476;51.448;6.674;2023-04-09T10:47:35;19.00;35.70
33105;DHT22;19476;51.448;6.674;2023-04-09T10:50:20;19.10;36.10
33105;DHT22;19476;51.448;6.674;2023-04-09T10:52:52;19.10;35.10
33105;DHT22;19476;51.448;6.674;2023-04-09T10:55:40;19.20;35.80
33105;DHT22;19476;51.448;6.674;2023-04-09T10:58:07;19.20;35.40
33105;DHT22;19476;51.448;6.674;2023-04-09T11:00:42;19.30;36.30
33105;DHT22;19476;51.448;6.674;2023-04-09T11:05:35;19.50;35.50
33105;DHT22;19476;51.448;6.674;2023-04-09T11:08:10;19.50;34.80
33105;DHT22;19476;51.448;6.674;2023-04-09T11:10:38;19.50;35.20
33105;DHT22;19476;51.448;6.674;2023-04-09T11:13:05;19.60;35.10
33105;DHT22;19476;51.448;6.674;2023-04-09T11:15:34;19.60;35.00
33105;DHT22;19476;51.448;6.674;2023-04-09T11:18:01;19.70;34.50
33105;DHT22;19476;51.448;6.674;2023-04-09T11:20:27;19.70;34.20
33105;DHT22;19476;51.448;6.674;2023-04-09T11:22:55;19.80;34.20
33105;DHT22;19476;51.448;6.674;2023-04-09T11:25:26;19.90;34.20
33105;DHT22;19476;51.448;6.674;2023-04-09T11:27:52;19.90;34.00
33105;DHT22;19476;51.448;6.674;2023-04-09T11:30:19;20.00;33.60
33105;DHT22;19476;51.448;6.674;2023-04-09T11:32:45;20.10;33.60
33105;DHT22;19476;51.448;6.674;2023-04-09T11:35:16;20.10;33.60
33105;DHT22;19476;51.448;6.674;2023-04-09T11:37:43;20.20;32.90
33105;DHT22;19476;51.448;6.674;2023-04-09T11:40:24;20.20;33.40
33105;DHT22;19476;51.448;6.674;2023-04-09T11:42:52;20.30;33.10
33105;DHT22;19476;51.448;6.674;2023-04-09T11:45:19;20.30;33.70
33105;DHT22;19476;51.448;6.674;2023-04-09T11:47:45;20.40;33.60
33105;DHT22;19476;51.448;6.674;2023-04-09T11:50:13;20.40;33.40
33105;DHT22;19476;51.448;6.674;2023-04-09T11:52:40;20.50;32.60
33105;DHT22;19476;51.448;6.674;2023-04-09T11:55:07;20.60;32.60
33105;DHT22;19476;51.448;6.674;2023-04-09T12:00:08;20.60;32.70
33105;DHT22;19476;51.448;6.674;2023-04-09T12:02:38;20.60;32.70
33105;DHT22;19476;51.448;6.674;2023-04-09T12:05:06;20.70;33.10
33105;DHT22;19476;51.448;6.674;2023-04-09T12:07:32;20.80;32.80
33105;DHT22;19476;51.448;6.674;2023-04-09T12:10:06;20.90;33.40
33105;DHT22;19476;51.448;6.674;2023-04-09T12:12:45;21.00;32.70
33105;DHT22;19476;51.448;6.674;2023-04-09T12:15:19;21.10;32.60
33105;DHT22;19476;51.448;6.674;2023-04-09T12:17:47;21.20;32.00
33105;DHT22;19476;51.448;6.674;2023-04-09T12:20:13;21.30;32.60
33105;DHT22;19476;51.448;6.674;2023-04-09T12:22:39;21.50;32.20
33105;DHT22;19476;51.448;6.674;2023-04-09T12:25:06;21.60;31.50
33105;DHT22;19476;51.448;6.674;2023-04-09T12:27:33;21.70;31.50
33105;DHT22;19476;51.448;6.674;2023-04-09T12:29:58;21.70;31.70
33105;DHT22;19476;51.448;6.674;2023-04-09T12:32:24;21.90;31.30
33105;DHT22;19476;51.448;6.674;2023-04-09T12:34:50;21.90;31.10
33105;DHT22;19476;51.448;6.674;2023-04-09T12:37:16;21.90;31.20
33105;DHT22;19476;51.448;6.674;2023-04-09T12:39:42;22.00;30.60
33105;DHT22;19476;51.448;6.674;2023-04-09T12:42:08;22.00;30.70
33105;DHT22;19476;51.448;6.674;2023-04-09T12:44:33;22.10;30.70
33105;DHT22;19476;51.448;6.674;2023-04-09T12:47:00;22.20;31.10
33105;DHT22;19476;51.448;6.674;2023-04-09T12:49:25;22.40;31.00
33105;DHT22;19476;51.448;6.674;2023-04-09T12:51:51;22.50;31.10
33105;DHT22;19476;51.448;6.674;2023-04-09T12:54:17;22.70;30.60
33105;DHT22;19476;51.448;6.674;2023-04-09T12:56:43;22.80;30.20
33105;DHT22;19476;51.448;6.674;2023-04-09T12:59:08;23.00;30.00
33105;DHT22;19476;51.448;6.674;2023-04-09T13:01:34;23.10;29.90
33105;DHT22;19476;51.448;6.674;2023-04-09T13:04:00;23.20;30.10
33105;DHT22;19476;51.448;6.674;2023-04-09T13:06:26;23.40;30.00
33105;DHT22;19476;51.448;6.674;2023-04-09T13:08:51;23.50;29.70
33105;DHT22;19476;51.448;6.674;2023-04-09T13:11:17;23.70;29.50
33105;DHT22;19476;51.448;6.674;2023-04-09T13:13:43;23.80;29.50
33105;DHT22;19476;51.448;6.674;2023-04-09T13:16:09;23.90;29.60
33105;DHT22;19476;51.448;6.674;2023-04-09T13:18:34;24.00;29.50
33105;DHT22;19476;51.448;6.674;2023-04-09T13:21:00;24.10;29.20
33105;DHT22;19476;51.448;6.674;2023-04-09T13:23:26;24.10;29.00
33105;DHT22;19476;51.448;6.674;2023-04-09T13:25:52;24.10;28.90
33105;DHT22;19476;51.448;6.674;2023-04-09T13:28:17;24.10;28.60
33105;DHT22;19476;51.448;6.674;2023-04-09T13:30:43;24.00;28.80
33105;DHT22;19476;51.448;6.674;2023-04-09T13:33:09;24.10;28.90
33105;DHT22;19476;51.448;6.674;2023-04-09T13:35:35;24.10;29.10
33105;DHT22;19476;51.448;6.674;2023-04-09T13:38:00;24.10;28.80
33105;DHT22;19476;51.448;6.674;2023-04-09T13:40:26;24.20;28.70
33105;DHT22;19476;51.448;6.674;2023-04-09T13:42:52;24.30;29.10
33105;DHT22;19476;51.448;6.674;2023-04-09T13:45:18;24.40;28.90
33105;DHT22;19476;51.448;6.674;2023-04-09T13:47:45;24.50;28.70
33105;DHT22;19476;51.448;6.674;2023-04-09T13:50:11;24.50;28.60
33105;DHT22;19476;51.448;6.674;2023-04-09T13:52:38;24.60;28.50
33105;DHT22;19476;51.448;6.674;2023-04-09T13:55:04;24.70;28.40
33105;DHT22;19476;51.448;6.674;2023-04-09T13:57:30;24.70;28.60
33105;DHT22;19476;51.448;6.674;2023-04-09T13:59:56;24.70;28.50
33105;DHT22;19476;51.448;6.674;2023-04-09T14:02:22;24.70;28.70
33105;DHT22;19476;51.448;6.674;2023-04-09T14:04:48;24.70;28.20
33105;DHT22;19476;51.448;6.674;2023-04-09T14:07:13;24.70;28.20
33105;DHT22;19476;51.448;6.674;2023-04-09T14:09:39;24.50;28.00
33105;DHT22;19476;51.448;6.674;2023-04-09T14:12:05;24.40;28.10
33105;DHT22;19476;51.448;6.674;2023-04-09T14:14:31;24.30;28.40
33105;DHT22;19476;51.448;6.674;2023-04-09T14:16:56;24.20;28.30
33105;DHT22;19476;51.448;6.674;2023-04-09T14:19:23;24.20;28.60
33105;DHT22;19476;51.448;6.674;2023-04-09T14:21:48;24.20;28.40
33105;DHT22;19476;51.448;6.674;2023-04-09T14:24:17;24.20;28.50
33105;DHT22;19476;51.448;6.674;2023-04-09T14:26:44;24.30;28.30
33105;DHT22;19476;51.448;6.674;2023-04-09T14:29:10;24.30;28.20
33105;DHT22;19476;51.448;6.674;2023-04-09T14:31:36;24.40;28.30
33105;DHT22;19476;51.448;6.674;2023-04-09T14:34:02;24.50;28.40
33105;DHT22;19476;51.448;6.674;2023-04-09T14:36:27;24.60;28.20
33105;DHT22;19476;51.448;6.674;2023-04-09T14:38:53;24.70;28.30
33105;DHT22;19476;51.448;6.674;2023-04-09T14:41:19;24.70;28.00
33105;DHT22;19476;51.448;6.674;2023-04-09T14:43:45;24.80;27.80
33105;DHT22;19476;51.448;6.674;2023-04-09T14:46:11;24.90;27.80
33105;DHT22;19476;51.448;6.674;2023-04-09T14:48:37;25.00;27.80
33105;DHT22;19476;51.448;6.674;2023-04-09T14:51:04;25.10;27.50
33105;DHT22;19476;51.448;6.674;2023-04-09T14:53:30;25.20;27.50
33105;DHT22;19476;51.448;6.674;2023-04-09T14:55:56;25.20;27.40
33105;DHT22;19476;51.448;6.674;2023-04-09T14:58:22;25.30;27.40
33105;DHT22;19476;51.448;6.674;2023-04-09T15:00:48;25.40;27.50
33105;DHT22;19476;51.448;6.674;2023-04-09T15:03:14;25.50;27.60
33105;DHT22;19476;51.448;6.674;2023-04-09T15:05:40;25.60;27.60
33105;DHT22;19476;51.448;6.674;2023-04-09T15:08:06;25.60;26.90
33105;DHT22;19476;51.448;6.674;2023-04-09T15:10:32;25.60;26.70
33105;DHT22;19476;51.448;6.674;2023-04-09T15:16:23;25.20;26.20
33105;DHT22;19476;51.448;6.674;2023-04-09T15:18:50;25.00;26.80
33105;DHT22;19476;51.448;6.674;2023-04-09T15:21:17;24.90;27.00
33105;DHT22;19476;51.448;6.674;2023-04-09T15:23:43;24.70;27.10
33105;DHT22;19476;51.448;6.674;2023-04-09T15:26:09;24.60;27.30
33105;DHT22;19476;51.448;6.674;2023-04-09T15:28:34;24.50;27.10
33105;DHT22;19476;51.448;6.674;2023-04-09T15:31:00;24.40;27.20
33105;DHT22;19476;51.448;6.674;2023-04-09T15:33:26;24.30;27.30
33105;DHT22;19476;51.448;6.674;2023-04-09T15:35:52;24.20;27.40
33105;DHT22;19476;51.448;6.674;2023-04-09T15:38:18;24.10;27.50
33105;DHT22;19476;51.448;6.674;2023-04-09T15:40:46;24.00;27.70
33105;DHT22;19476;51.448;6.674;2023-04-09T15:43:12;24.10;27.90
33105;DHT22;19476;51.448;6.674;2023-04-09T15:45:38;24.10;27.80
33105;DHT22;19476;51.448;6.674;2023-04-09T15:48:04;24.10;27.70
33105;DHT22;19476;51.448;6.674;2023-04-09T15:50:29;24.10;27.50
33105;DHT22;19476;51.448;6.674;2023-04-09T15:52:56;24.00;27.50
33105;DHT22;19476;51.448;6.674;2023-04-09T15:55:21;23.90;27.60
33105;DHT22;19476;51.448;6.674;2023-04-09T15:57:51;23.80;27.80